Time;durP1;ratioP1;P1;durP2;ratioP2;P2;SDS_P1;SDS_P2;PMS_P1;PMS_P2;Temp;Humidity;BMP_temperature;BMP_pressure;BME280_temperature;BME280_humidity;BME280_pressure;Samples;Min_cycle;Max_cycle;Signal;HPM_P1;HPM_P2
2022/06/15 00:01:46;;;;;;;6.75;2.67;;;;;;;14.88;88.30;101829.72;5236170;28;20745;-67
2022/06/15 00:04:17;;;;;;;7.43;3.42;;;;;;;14.86;88.78;101829.84;5235130;28;20091;-68
2022/06/15 00:06:49;;;;;;;7.15;2.92;;;;;;;14.83;88.28;101824.84;5235483;28;20355;-67
2022/06/15 00:09:20;;;;;;;4.30;2.80;;;;;;;14.72;89.97;101823.13;5236572;28;20476;-67
2022/06/15 00:11:51;;;;;;;5.90;2.35;;;;;;;14.88;88.70;101827.06;5216042;28;20507;-68
2022/06/15 00:14:26;;;;;;;9.70;3.03;;;;;;;14.86;90.50;101829.03;5235904;28;20492;-67
2022/06/15 00:16:58;;;;;;;6.22;3.20;;;;;;;14.63;89.56;101823.94;5218554;28;20033;-68
2022/06/15 00:19:29;;;;;;;6.18;2.80;;;;;;;14.67;89.54;101821.88;5216368;28;20049;-67
2022/06/15 00:22:00;;;;;;;8.35;2.90;;;;;;;14.54;91.08;101822.09;5217288;28;20719;-67
2022/06/15 00:24:31;;;;;;;5.13;2.70;;;;;;;14.47;92.29;101821.78;5235996;28;20026;-67
2022/06/15 00:27:03;;;;;;;5.95;2.90;;;;;;;14.49;90.35;101821.63;5232466;28;20025;-67
2022/06/15 00:29:37;;;;;;;5.78;2.70;;;;;;;14.40;92.55;101817.16;5235498;28;20048;-68
2022/06/15 00:32:09;;;;;;;7.22;3.17;;;;;;;14.38;93.12;101819.91;5217538;28;20443;-67
2022/06/15 00:34:40;;;;;;;5.25;3.00;;;;;;;14.36;92.23;101820.03;5233251;28;20064;-68
2022/06/15 00:37:11;;;;;;;7.30;3.55;;;;;;;14.34;93.35;101819.31;5217056;28;20029;-68
2022/06/15 00:39:43;;;;;;;6.53;3.35;;;;;;;14.29;93.80;101816.25;5234521;28;20021;-67
2022/06/15 00:42:15;;;;;;;4.82;2.83;;;;;;;14.25;94.40;101819.28;5234266;28;20026;-68
2022/06/15 00:44:46;;;;;;;5.32;3.40;;;;;;;14.24;91.91;101815.78;5235213;28;20032;-67
2022/06/15 00:47:24;;;;;;;7.38;3.35;;;;;;;14.20;95.77;101810.91;5234586;28;20068;-68
2022/06/15 00:50:18;;;;;;;6.80;3.22;;;;;;;14.36;94.57;101804.22;5235568;28;20376;-68
2022/06/15 00:53:07;;;;;;;8.35;3.28;;;;;;;14.18;95.96;101811.06;5233663;28;20438;-67
2022/06/15 00:55:39;;;;;;;4.25;2.88;;;;;;;13.98;96.78;101811.88;5233169;28;20048;-67
2022/06/15 00:58:10;;;;;;;7.53;3.57;;;;;;;13.94;97.15;101806.06;5235460;28;20021;-67
2022/06/15 01:00:42;;;;;;;5.65;3.20;;;;;;;13.94;97.80;101805.19;5233846;28;20419;-67
2022/06/15 01:03:13;;;;;;;8.05;3.72;;;;;;;13.85;98.61;101809.44;5234665;28;20033;-67
2022/06/15 01:06:14;;;;;;;7.07;3.20;;;;;;;14.12;96.54;101806.28;5234581;28;20104;-67
2022/06/15 01:09:09;;;;;;;5.53;3.10;;;;;;;14.08;96.86;101803.09;5217377;28;20022;-67
2022/06/15 01:12:08;;;;;;;5.95;3.20;;;;;;;14.07;96.50;101796.16;5232333;28;20473;-67
2022/06/15 01:14:52;;;;;;;4.03;2.88;;;;;;;13.93;99.30;101793.84;5233488;28;20029;-67
2022/06/15 01:17:57;;;;;;;7.82;3.50;;;;;;;13.99;98.21;101803.03;5215758;28;20087;-68
2022/06/15 01:21:00;;;;;;;7.88;3.90;;;;;;;14.00;97.94;101799.44;5252235;23;20679;-69
2022/06/15 01:24:04;;;;;;;7.10;3.72;;;;;;;13.96;99.16;101800.66;5168838;28;20100;-68
2022/06/15 01:27:14;;;;;;;5.88;3.25;;;;;;;13.91;98.83;101800.22;5210634;28;20021;-69
2022/06/15 01:29:57;;;;;;;8.15;3.70;;;;;;;13.83;100.00;101798.22;5173418;28;20543;-69
2022/06/15 01:32:41;;;;;;;7.22;3.75;;;;;;;13.69;100.00;101796.72;5196074;28;20388;-69
2022/06/15 01:35:24;;;;;;;9.93;4.00;;;;;;;13.55;100.00;101795.22;5212532;28;20473;-70
2022/06/15 01:38:19;;;;;;;5.75;3.80;;;;;;;13.67;100.00;101788.09;5211852;28;20034;-70
2022/06/15 01:41:16;;;;;;;6.32;3.55;;;;;;;13.60;100.00;101790.44;5211158;28;20017;-69
2022/06/15 01:43:58;;;;;;;6.95;3.63;;;;;;;13.58;100.00;101781.81;5167335;28;20049;-69
2022/06/15 01:46:30;;;;;;;5.05;3.38;;;;;;;13.41;100.00;101786.78;5194717;28;20026;-70
2022/06/15 01:49:03;;;;;;;11.00;3.70;;;;;;;13.53;100.00;101786.63;5213300;28;20408;-69
2022/06/15 01:51:41;;;;;;;11.27;4.05;;;;;;;13.53;100.00;101789.25;5213098;28;20435;-70
2022/06/15 01:54:35;;;;;;;5.35;3.30;;;;;;;13.71;100.00;101778.97;5212432;28;20116;-69
2022/06/15 01:57:09;;;;;;;8.63;3.60;;;;;;;13.45;100.00;101778.53;5210333;28;20032;-69
2022/06/15 01:59:50;;;;;;;5.05;3.40;;;;;;;13.45;100.00;101785.56;5212647;28;20116;-70
2022/06/15 02:02:41;;;;;;;6.07;3.70;;;;;;;13.58;100.00;101771.28;5210724;28;20026;-69
2022/06/15 02:05:32;;;;;;;6.97;3.53;;;;;;;13.45;100.00;101780.31;5212456;28;20026;-69
2022/06/15 02:08:22;;;;;;;7.32;4.00;;;;;;;13.68;100.00;101774.00;5195564;28;20042;-69
2022/06/15 02:11:15;;;;;;;5.95;3.40;;;;;;;13.65;100.00;101771.59;5209288;28;20033;-70
2022/06/15 02:14:18;;;;;;;8.63;4.07;;;;;;;13.52;100.00;101769.13;5211493;28;20504;-69
2022/06/15 02:17:07;;;;;;;6.18;3.45;;;;;;;13.45;100.00;101773.25;5194673;28;20499;-69
2022/06/15 02:19:45;;;;;;;7.55;3.70;;;;;;;13.34;100.00;101768.03;5212200;28;20385;-69
2022/06/15 02:22:21;;;;;;;7.03;4.07;;;;;;;13.35;100.00;101770.53;5195714;28;20030;-70
2022/06/15 02:24:55;;;;;;;6.25;3.78;;;;;;;13.28;100.00;101771.16;5211605;28;20025;-69
2022/06/15 02:27:29;;;;;;;6.38;3.83;;;;;;;13.23;100.00;101762.78;5209297;28;20029;-69
2022/06/15 02:30:06;;;;;;;7.20;4.00;;;;;;;13.24;100.00;101761.84;5212260;28;20499;-70
2022/06/15 02:32:37;;;;;;;6.43;3.90;;;;;;;13.16;100.00;101759.81;5213224;28;20076;-69
2022/06/15 02:35:09;;;;;;;6.20;3.58;;;;;;;13.04;100.00;101759.00;5212765;28;20026;-70
2022/06/15 02:37:41;;;;;;;7.90;4.22;;;;;;;13.04;100.00;101764.28;5213683;28;20034;-69
2022/06/15 02:40:19;;;;;;;6.75;3.30;;;;;;;13.13;100.00;101763.50;5208456;28;20034;-70
2022/06/15 02:42:51;;;;;;;7.03;4.32;;;;;;;12.92;100.00;101754.75;5212942;28;20121;-69
2022/06/15 02:45:34;;;;;;;5.88;3.70;;;;;;;13.10;100.00;101747.13;5212575;28;20030;-69
2022/06/15 02:48:09;;;;;;;5.80;4.20;;;;;;;13.08;100.00;101756.97;5212345;28;20041;-69
2022/06/15 02:50:55;;;;;;;6.38;3.80;;;;;;;13.16;100.00;101746.66;5213016;28;20551;-69
2022/06/15 02:53:29;;;;;;;6.07;3.70;;;;;;;13.02;100.00;101750.38;5213935;28;20025;-69
2022/06/15 02:56:01;;;;;;;7.38;3.65;;;;;;;12.94;100.00;101751.97;5213819;28;20026;-70
2022/06/15 02:58:37;;;;;;;5.95;3.95;;;;;;;13.03;100.00;101746.81;5215649;28;20030;-69
2022/06/15 03:01:08;;;;;;;9.73;3.83;;;;;;;12.93;100.00;101742.44;5199895;28;20120;-69
2022/06/15 03:03:40;;;;;;;5.05;3.30;;;;;;;12.86;100.00;101747.34;5215458;28;20260;-69
2022/06/15 03:06:16;;;;;;;7.70;4.25;;;;;;;12.91;100.00;101751.25;5217025;28;20087;-70
2022/06/15 03:08:47;;;;;;;4.97;3.53;;;;;;;12.84;100.00;101747.47;5214768;28;20519;-69
2022/06/15 03:11:18;;;;;;;6.00;3.65;;;;;;;12.82;100.00;101746.75;5213713;28;20199;-69
2022/06/15 03:13:51;;;;;;;9.35;4.00;;;;;;;12.74;100.00;101748.31;5216296;28;20029;-69
2022/06/15 03:16:22;;;;;;;9.75;4.00;;;;;;;12.77;100.00;101748.91;5216702;28;20535;-69
2022/06/15 03:18:53;;;;;;;9.85;4.00;;;;;;;12.70;100.00;101752.16;5215829;28;20121;-69
2022/06/15 03:21:25;;;;;;;7.15;3.85;;;;;;;12.67;100.00;101742.69;5216190;28;20034;-69
2022/06/15 03:23:56;;;;;;;8.68;4.15;;;;;;;12.68;100.00;101747.00;5214747;28;20036;-69
2022/06/15 03:26:27;;;;;;;8.75;4.15;;;;;;;12.56;100.00;101727.78;5210948;28;20024;-69
2022/06/15 03:28:59;;;;;;;7.25;3.75;;;;;;;12.64;100.00;101743.78;5215686;28;20029;-68
2022/06/15 03:31:30;;;;;;;7.55;3.80;;;;;;;12.73;100.00;101751.88;5216533;28;20072;-69
2022/06/15 03:34:02;;;;;;;7.07;3.78;;;;;;;12.64;100.00;101742.94;5216007;28;20092;-69
2022/06/15 03:36:34;;;;;;;7.22;4.00;;;;;;;12.63;100.00;101752.63;5215496;28;20033;-69
2022/06/15 03:39:05;;;;;;;7.72;3.90;;;;;;;12.54;100.00;101747.25;5215517;28;20080;-70
2022/06/15 03:41:37;;;;;;;6.90;4.20;;;;;;;12.61;100.00;101756.31;5212489;28;20029;-70
2022/06/15 03:44:10;;;;;;;5.50;3.45;;;;;;;12.60;100.00;101754.66;5216112;28;20101;-69
2022/06/15 03:46:41;;;;;;;8.50;4.60;;;;;;;12.61;100.00;101757.19;5214630;28;20021;-69
2022/06/15 03:49:14;;;;;;;5.63;3.83;;;;;;;12.57;100.00;101760.97;5216020;28;20389;-69
2022/06/15 03:51:45;;;;;;;7.57;3.80;;;;;;;12.61;100.00;101759.81;5215624;28;20033;-69
2022/06/15 03:54:16;;;;;;;6.50;3.95;;;;;;;12.62;100.00;101758.00;5196837;28;20036;-70
2022/06/15 03:56:49;;;;;;;7.30;3.85;;;;;;;12.60;100.00;101755.50;5212030;28;20022;-70
2022/06/15 03:59:20;;;;;;;7.25;3.97;;;;;;;12.58;100.00;101761.84;5215509;28;20373;-69
2022/06/15 04:01:51;;;;;;;8.00;4.22;;;;;;;12.57;100.00;101762.78;5212896;28;20034;-68
2022/06/15 04:04:23;;;;;;;6.90;3.95;;;;;;;12.63;100.00;101757.06;5213843;28;20164;-69
2022/06/15 04:06:54;;;;;;;7.43;4.40;;;;;;;12.61;100.00;101753.69;5214689;28;20084;-69
2022/06/15 04:09:26;;;;;;;7.60;3.90;;;;;;;12.66;100.00;101767.34;5215362;28;20041;-68
2022/06/15 04:12:08;;;;;;;7.05;4.00;;;;;;;12.70;100.00;101765.28;5194731;28;20540;-69
2022/06/15 04:14:39;;;;;;;7.97;4.05;;;;;;;12.75;100.00;101758.69;5214088;28;20463;-68
2022/06/15 04:17:11;;;;;;;7.25;4.43;;;;;;;12.77;100.00;101769.13;5214864;28;20100;-69
2022/06/15 04:19:43;;;;;;;9.32;4.60;;;;;;;12.76;100.00;101765.63;5213155;28;20050;-69
2022/06/15 04:22:14;;;;;;;8.55;4.53;;;;;;;12.78;100.00;101763.72;5214130;28;20314;-70
2022/06/15 04:24:45;;;;;;;9.27;5.03;;;;;;;12.91;100.00;101764.41;5214288;28;20556;-69
2022/06/15 04:27:16;;;;;;;9.18;4.63;;;;;;;12.97;100.00;101759.63;5209044;28;20476;-68
2022/06/15 04:29:48;;;;;;;9.38;4.50;;;;;;;13.01;100.00;101750.53;5214014;28;20033;-69
2022/06/15 04:32:19;;;;;;;11.88;4.55;;;;;;;13.12;100.00;101761.03;5213775;28;20503;-69
2022/06/15 04:34:51;;;;;;;5.97;3.95;;;;;;;13.19;100.00;101762.19;5214706;28;20508;-68
2022/06/15 04:37:22;;;;;;;8.73;4.55;;;;;;;13.25;100.00;101756.44;5212483;28;20021;-70
2022/06/15 04:39:53;;;;;;;8.15;4.25;;;;;;;13.32;100.00;101746.25;5213342;28;20022;-70
2022/06/15 04:42:25;;;;;;;7.55;4.22;;;;;;;13.35;100.00;101754.75;5195608;28;20025;-68
2022/06/15 04:44:56;;;;;;;8.48;4.03;;;;;;;13.43;100.00;101755.91;5213951;28;20024;-69
2022/06/15 04:47:27;;;;;;;10.85;4.60;;;;;;;13.51;100.00;101756.94;5213199;28;20033;-68
2022/06/15 04:49:59;;;;;;;10.95;4.50;;;;;;;13.46;100.00;101760.94;5213381;28;20089;-69
2022/06/15 04:52:30;;;;;;;8.80;5.05;;;;;;;13.52;100.00;101763.88;5213795;28;20052;-69
2022/06/15 04:55:01;;;;;;;8.88;5.07;;;;;;;13.55;100.00;101760.16;5212567;28;20447;-70
2022/06/15 04:57:33;;;;;;;11.52;4.75;;;;;;;13.61;100.00;101757.88;5210150;28;20030;-68
2022/06/15 05:00:07;;;;;;;13.30;5.03;;;;;;;13.73;100.00;101766.53;5201323;28;20040;-68
2022/06/15 05:02:39;;;;;;;7.82;5.00;;;;;;;13.78;100.00;101760.88;5213356;28;20021;-69
2022/06/15 05:05:10;;;;;;;7.65;4.03;;;;;;;13.87;100.00;101768.03;5214016;28;20068;-69
2022/06/15 05:07:42;;;;;;;10.10;4.88;;;;;;;13.88;100.00;101764.41;5212512;28;20653;-69
2022/06/15 05:10:21;;;;;;;8.98;5.25;;;;;;;13.99;100.00;101764.34;5211648;28;20021;-68
2022/06/15 05:12:53;;;;;;;9.95;4.63;;;;;;;14.00;100.00;101763.38;5205738;28;20099;-71
2022/06/15 05:15:25;;;;;;;15.07;5.22;;;;;;;14.08;100.00;101762.72;5211782;28;20100;-68
2022/06/15 05:18:02;;;;;;;10.83;4.97;;;;;;;14.18;100.00;101760.97;5212796;28;20045;-68
2022/06/15 05:20:40;;;;;;;7.95;4.78;;;;;;;14.28;100.00;101750.47;5211445;28;20046;-69
2022/06/15 05:23:14;;;;;;;7.60;4.90;;;;;;;14.34;100.00;101769.25;5211356;28;20117;-69
2022/06/15 05:25:45;;;;;;;9.18;5.00;;;;;;;14.37;100.00;101760.25;5208533;28;20026;-69
2022/06/15 05:28:17;;;;;;;9.90;5.03;;;;;;;14.48;100.00;101767.22;5213534;28;20404;-69
2022/06/15 05:30:48;;;;;;;9.85;5.05;;;;;;;14.55;100.00;101768.41;5206475;28;20018;-68
2022/06/15 05:33:19;;;;;;;8.77;4.80;;;;;;;14.57;100.00;101756.72;5213194;28;20030;-68
2022/06/15 05:35:50;;;;;;;9.73;4.60;;;;;;;14.62;100.00;101753.69;5211643;28;20030;-69
2022/06/15 05:38:22;;;;;;;10.32;5.45;;;;;;;14.76;100.00;101760.41;5194026;28;20057;-71
2022/06/15 05:40:54;;;;;;;9.23;5.18;;;;;;;14.88;100.00;101769.03;5206187;28;20029;-68
2022/06/15 05:43:25;;;;;;;10.07;6.03;;;;;;;14.94;98.85;101764.06;5210578;28;20507;-69
2022/06/15 05:45:56;;;;;;;9.02;5.93;;;;;;;15.07;99.24;101769.06;5207820;28;20021;-69
2022/06/15 05:48:28;;;;;;;8.73;5.28;;;;;;;15.13;98.39;101767.69;5220771;28;20488;-69
2022/06/15 05:50:59;;;;;;;9.57;6.03;;;;;;;15.30;96.75;101777.56;5206886;28;20773;-70
2022/06/15 05:53:30;;;;;;;12.23;5.70;;;;;;;15.28;93.11;101769.78;5208652;28;20757;-70
2022/06/15 05:56:02;;;;;;;8.93;5.43;;;;;;;15.42;94.26;101775.63;5211459;28;20469;-70
2022/06/15 05:58:33;;;;;;;11.38;5.63;;;;;;;15.54;93.74;101779.81;5193338;28;20089;-69
2022/06/15 06:01:17;;;;;;;9.70;5.53;;;;;;;15.70;91.54;101771.34;5205286;28;20022;-68
2022/06/15 06:03:48;;;;;;;10.95;5.40;;;;;;;15.72;90.37;101780.81;5210963;28;20029;-70
2022/06/15 06:06:20;;;;;;;10.10;5.40;;;;;;;15.82;90.46;101778.97;5213818;28;20018;-69
2022/06/15 06:08:52;;;;;;;6.90;5.07;;;;;;;15.96;88.61;101775.06;5210940;28;20030;-69
2022/06/15 06:11:25;;;;;;;8.30;5.53;;;;;;;16.10;86.78;101767.63;5195695;28;20144;-68
2022/06/15 06:13:56;;;;;;;9.30;5.22;;;;;;;16.22;87.36;101767.34;5212634;28;20018;-69
2022/06/15 06:16:28;;;;;;;9.25;6.03;;;;;;;16.35;86.77;101760.88;5208575;28;20508;-71
2022/06/15 06:18:59;;;;;;;10.18;5.68;;;;;;;16.44;88.15;101775.84;5208840;28;20073;-69
2022/06/15 06:21:30;;;;;;;10.55;5.72;;;;;;;16.61;87.09;101774.28;5209816;28;20417;-69
2022/06/15 06:24:02;;;;;;;9.93;5.90;;;;;;;16.77;85.18;101763.91;5210006;28;20363;-69
2022/06/15 06:26:33;;;;;;;9.75;5.55;;;;;;;16.90;84.98;101763.56;5208567;28;20034;-69
2022/06/15 06:29:06;;;;;;;7.97;5.10;;;;;;;17.00;82.67;101765.13;5210557;28;20362;-68
2022/06/15 06:31:37;;;;;;;;;;;;;;;17.49;82.62;101770.06;5197620;28;20161;-68
2022/06/15 06:34:10;;;;;;;10.07;4.90;;;;;;;17.31;80.55;101771.88;5214301;28;19925;-69
2022/06/15 06:36:45;;;;;;;10.15;5.22;;;;;;;17.50;82.15;101769.09;5215337;28;20026;-69
2022/06/15 06:39:25;;;;;;;10.90;5.60;;;;;;;17.62;79.22;101767.06;5213464;28;20018;-69
2022/06/15 06:41:58;;;;;;;11.38;5.90;;;;;;;17.75;78.85;101772.78;5214504;28;20061;-69
2022/06/15 06:44:30;;;;;;;8.70;5.13;;;;;;;17.79;76.42;101770.66;5214047;28;20233;-69
2022/06/15 06:47:02;;;;;;;8.77;5.25;;;;;;;17.90;74.28;101781.03;5212564;28;20489;-70
2022/06/15 06:49:35;;;;;;;10.68;4.97;;;;;;;18.08;75.91;101778.34;5212678;28;20044;-70
2022/06/15 06:52:07;;;;;;;8.70;4.78;;;;;;;18.15;73.52;101784.69;5211598;28;20131;-69
2022/06/15 06:54:39;;;;;;;8.57;4.57;;;;;;;18.30;72.68;101771.66;5214354;28;20038;-69
2022/06/15 06:57:10;;;;;;;8.18;4.63;;;;;;;18.50;73.16;101770.41;5216078;28;20488;-70
2022/06/15 06:59:42;;;;;;;9.55;4.97;;;;;;;18.71;71.34;101775.31;5216556;28;20068;-70
2022/06/15 07:02:13;;;;;;;12.02;4.72;;;;;;;18.82;70.72;101772.38;5214184;28;20061;-70
2022/06/15 07:04:44;;;;;;;7.50;4.60;;;;;;;18.90;70.09;101784.84;5198138;28;20029;-70
2022/06/15 07:07:15;;;;;;;8.30;4.75;;;;;;;19.03;68.81;101781.75;5216151;28;20026;-69
2022/06/15 07:09:47;;;;;;;7.35;4.30;;;;;;;19.17;68.69;101778.47;5216354;28;20025;-70
2022/06/15 07:12:18;;;;;;;9.57;4.88;;;;;;;19.34;69.40;101789.94;5215818;28;20121;-70
2022/06/15 07:14:51;;;;;;;10.93;4.15;;;;;;;19.49;67.29;101788.28;5197527;28;20034;-70
2022/06/15 07:17:22;;;;;;;8.93;3.85;;;;;;;19.52;62.28;101787.94;5198786;28;20075;-70
2022/06/15 07:19:53;;;;;;;8.97;5.03;;;;;;;19.61;65.40;101786.94;5215286;28;20440;-70
2022/06/15 07:22:25;;;;;;;7.47;4.20;;;;;;;19.73;63.20;101792.78;5215895;28;20033;-69
2022/06/15 07:24:56;;;;;;;9.98;4.28;;;;;;;19.86;66.08;101785.13;5216557;28;20030;-69
2022/06/15 07:27:27;;;;;;;8.97;5.27;;;;;;;20.07;62.93;101787.25;5215359;28;20068;-73
2022/06/15 07:29:59;;;;;;;10.50;4.57;;;;;;;20.14;61.02;101790.91;5213856;28;20030;-69
2022/06/15 07:32:31;;;;;;;14.25;5.30;;;;;;;20.31;62.98;101793.53;5215112;28;20032;-70
2022/06/15 07:35:03;;;;;;;8.40;5.03;;;;;;;20.46;61.98;101791.00;5214530;28;20564;-70
2022/06/15 07:37:34;;;;;;;7.68;4.32;;;;;;;20.47;57.99;101780.16;5192222;28;20032;-69
2022/06/15 07:40:06;;;;;;;6.67;3.93;;;;;;;20.65;58.71;101779.97;5210845;28;20104;-70
2022/06/15 07:42:38;;;;;;;14.97;4.17;;;;;;;20.84;56.91;101798.16;5212399;28;20036;-69
2022/06/15 07:45:10;;;;;;;8.90;4.63;;;;;;;20.98;57.86;101799.25;5197911;28;20084;-69
2022/06/15 07:50:33;;;;;;;10.73;5.15;;;;;;;21.15;57.44;101792.00;5213727;28;20268;-70
2022/06/15 07:53:07;;;;;;;6.40;4.05;;;;;;;21.27;55.86;101790.56;5206651;28;20219;-71
2022/06/15 07:55:41;;;;;;;7.88;4.30;;;;;;;21.30;55.08;101792.06;5196707;28;20622;-71
2022/06/15 07:58:14;;;;;;;7.05;4.22;;;;;;;21.52;58.00;101793.94;5208657;28;20336;-70
2022/06/15 08:00:49;;;;;;;7.72;4.22;;;;;;;21.75;54.45;101788.56;5214164;28;20092;-71
2022/06/15 08:03:21;;;;;;;8.73;4.43;;;;;;;21.78;54.20;101800.69;5207241;28;20025;-71
2022/06/15 08:05:52;;;;;;;6.77;4.07;;;;;;;21.76;50.89;101798.22;5213284;28;20122;-71
2022/06/15 08:08:24;;;;;;;10.53;4.10;;;;;;;21.82;51.27;101808.16;5195962;28;20033;-70
2022/06/15 08:10:56;;;;;;;9.57;3.78;;;;;;;21.97;51.96;101796.66;5214395;28;20109;-71
2022/06/15 08:13:27;;;;;;;6.73;4.07;;;;;;;21.94;51.20;101799.72;5215781;28;20557;-70
2022/06/15 08:15:58;;;;;;;6.87;4.17;;;;;;;22.02;53.48;101792.47;5212566;28;20021;-70
2022/06/15 08:18:34;;;;;;;8.03;3.30;;;;;;;22.25;51.53;101799.59;5214081;28;20029;-70
2022/06/15 08:21:10;;;;;;;6.68;3.95;;;;;;;22.52;51.54;101787.44;5214263;28;20030;-70
2022/06/15 08:23:45;;;;;;;7.55;4.05;;;;;;;22.44;50.67;101791.03;5213269;28;20064;-70
2022/06/15 08:26:20;;;;;;;7.13;3.90;;;;;;;22.54;51.47;101793.41;5213432;28;20058;-71
2022/06/15 08:28:54;;;;;;;6.38;3.45;;;;;;;22.55;48.88;101793.22;5212781;28;20519;-70
2022/06/15 08:31:26;;;;;;;4.80;3.05;;;;;;;22.54;46.87;101791.59;5214028;28;20374;-71
2022/06/15 08:33:57;;;;;;;8.37;3.07;;;;;;;22.65;46.74;101792.91;5195160;28;20100;-70
2022/06/15 08:36:30;;;;;;;6.70;2.97;;;;;;;22.75;46.52;101788.13;5213436;28;20030;-70
2022/06/15 08:39:02;;;;;;;;;;;;;;;23.35;46.41;101794.13;5212360;28;20033;-70
2022/06/15 08:42:10;;;;;;;4.60;2.65;;;;;;;23.19;47.50;101789.88;5214107;28;19913;-70
2022/06/15 08:45:26;;;;;;;9.85;3.88;;;;;;;23.45;47.87;101788.44;5213224;28;20119;-70
2022/06/15 08:48:24;;;;;;;9.80;3.83;;;;;;;23.47;48.34;101786.44;5196089;28;20485;-70
2022/06/15 08:51:18;;;;;;;7.50;3.53;;;;;;;23.43;46.63;101787.84;5213572;28;20492;-70
2022/06/15 08:53:58;;;;;;;8.30;3.10;;;;;;;23.49;46.29;101784.41;5210493;28;20048;-71
2022/06/15 08:56:40;;;;;;;6.80;3.05;;;;;;;23.64;45.34;101777.13;5195583;28;20117;-70
2022/06/15 08:59:27;;;;;;;7.70;2.97;;;;;;;23.66;43.50;101783.13;5210955;28;20436;-71
2022/06/15 09:02:12;;;;;;;6.80;3.67;;;;;;;23.63;44.58;101790.66;5209599;28;20025;-70
2022/06/15 09:05:14;;;;;;;8.60;3.30;;;;;;;23.91;44.88;101786.19;5212687;28;20176;-70
2022/06/15 09:08:10;;;;;;;5.97;3.00;;;;;;;24.10;46.11;101786.53;5211825;28;20030;-71
2022/06/15 09:10:56;;;;;;;9.50;4.15;;;;;;;23.93;44.19;101776.09;5213599;28;20026;-70
2022/06/15 09:13:55;;;;;;;7.25;3.80;;;;;;;24.17;45.02;101782.00;5214106;28;20357;-70
2022/06/15 09:16:37;;;;;;;8.73;3.22;;;;;;;24.00;42.63;101776.97;5210656;28;20034;-70
2022/06/15 09:19:23;;;;;;;6.85;2.92;;;;;;;24.18;41.56;101784.50;5212241;28;20500;-70
2022/06/15 09:22:07;;;;;;;10.27;3.20;;;;;;;24.33;42.32;101789.75;5213100;28;20040;-70
2022/06/15 09:24:47;;;;;;;6.80;2.80;;;;;;;24.41;42.20;101780.75;5212483;28;20030;-70
2022/06/15 09:27:42;;;;;;;6.53;2.95;;;;;;;24.45;41.88;101785.50;5212468;28;20026;-70
2022/06/15 09:30:31;;;;;;;6.75;2.78;;;;;;;24.70;42.45;101788.50;5194692;28;20507;-70
2022/06/15 09:33:12;;;;;;;6.97;3.05;;;;;;;24.75;41.41;101788.72;5200213;28;20032;-70
2022/06/15 09:35:50;;;;;;;5.93;3.45;;;;;;;24.80;40.66;101782.75;5213844;28;20034;-70
2022/06/15 09:38:21;;;;;;;8.45;3.13;;;;;;;24.81;41.18;101775.53;5212192;28;20124;-69
2022/06/15 09:40:59;;;;;;;7.23;3.50;;;;;;;25.02;39.80;101779.94;5214066;28;20124;-70
2022/06/15 09:43:43;;;;;;;9.15;3.50;;;;;;;24.93;39.91;101777.44;5210867;28;20104;-70
2022/06/15 09:46:41;;;;;;;10.05;3.78;;;;;;;25.05;39.28;101763.44;5211876;28;20376;-70
2022/06/15 09:49:34;;;;;;;7.53;3.05;;;;;;;25.19;39.76;101765.13;5211701;28;20121;-70
2022/06/15 09:52:11;;;;;;;10.38;3.13;;;;;;;25.30;40.59;101783.28;5207027;28;20026;-70
2022/06/15 09:54:55;;;;;;;7.75;3.35;;;;;;;25.38;40.29;101772.38;5211933;28;20033;-70
2022/06/15 09:57:26;;;;;;;8.02;3.35;;;;;;;25.15;40.29;101770.06;5210618;28;20030;-71
2022/06/15 10:00:02;;;;;;;9.67;3.50;;;;;;;25.33;40.15;101772.16;5210438;28;20095;-70
2022/06/15 10:02:38;;;;;;;7.53;3.30;;;;;;;25.48;38.85;101770.09;5209377;28;20496;-70
2022/06/15 10:05:35;;;;;;;8.45;3.10;;;;;;;25.38;40.65;101777.75;5195071;28;20022;-70
2022/06/15 10:08:12;;;;;;;7.90;3.35;;;;;;;25.31;39.65;101773.41;5212215;28;20396;-70
2022/06/15 10:10:52;;;;;;;7.68;3.10;;;;;;;25.56;39.49;101774.44;5210251;28;20061;-70
2022/06/15 10:13:29;;;;;;;9.93;3.05;;;;;;;25.71;38.87;101777.72;5212992;28;20707;-70
2022/06/15 10:16:17;;;;;;;9.10;3.03;;;;;;;25.79;40.37;101786.63;5211894;28;20477;-70
2022/06/15 10:18:52;;;;;;;8.18;3.25;;;;;;;25.56;40.23;101777.13;5211107;28;20046;-71
2022/06/15 10:21:32;;;;;;;7.07;3.05;;;;;;;25.69;38.34;101774.44;5211539;28;20059;-70
2022/06/15 10:24:06;;;;;;;8.95;3.70;;;;;;;25.59;37.50;101770.53;5210966;28;20481;-70
2022/06/15 10:26:50;;;;;;;6.72;3.20;;;;;;;25.68;38.46;101769.25;5195573;28;20092;-70
2022/06/15 10:29:27;;;;;;;8.00;3.10;;;;;;;25.77;38.24;101768.03;5210909;28;20066;-70
2022/06/15 10:32:08;;;;;;;12.07;3.20;;;;;;;26.07;38.77;101770.28;5210679;28;20109;-70
2022/06/15 10:34:42;;;;;;;7.47;3.13;;;;;;;25.89;37.38;101777.13;5206887;28;20038;-70
2022/06/15 10:37:21;;;;;;;6.97;2.80;;;;;;;26.00;37.81;101772.16;5208940;28;20028;-70
2022/06/15 10:39:58;;;;;;;7.43;2.92;;;;;;;25.98;36.52;101774.22;5209705;28;20072;-70
2022/06/15 10:42:41;;;;;;;7.00;3.00;;;;;;;26.12;37.14;101771.28;5211950;28;20049;-70
2022/06/15 10:45:33;;;;;;;7.32;2.95;;;;;;;26.24;36.29;101766.09;5212523;28;20483;-70
2022/06/15 10:48:16;;;;;;;;;;;;;;;26.91;36.18;101769.34;5210555;28;20164;-70
2022/06/15 10:50:58;;;;;;;9.65;3.05;;;;;;;26.40;38.36;101768.31;5206588;28;20059;-71
2022/06/15 10:53:41;;;;;;;9.13;2.97;;;;;;;26.48;37.44;101767.28;5207973;28;20060;-71
2022/06/15 11:02:31;;;;;;;9.25;3.30;;;;;;;26.59;36.47;101757.72;5209913;28;20046;-71
2022/06/15 11:05:19;;;;;;;9.05;2.88;;;;;;;26.80;37.12;101749.34;5212222;28;20522;-71
2022/06/15 11:07:52;;;;;;;5.68;2.78;;;;;;;26.39;36.20;101749.72;5209743;28;20038;-71
2022/06/15 11:10:42;;;;;;;7.20;3.20;;;;;;;26.55;35.69;101737.69;5193793;28;20041;-71
2022/06/15 11:13:19;;;;;;;7.78;3.10;;;;;;;26.76;36.96;101740.06;5209162;28;20033;-71
2022/06/15 11:19:01;;;;;;;6.70;2.65;;;;;;;26.72;35.49;101738.84;5211040;28;20416;-71
2022/06/15 11:21:45;;;;;;;8.18;2.78;;;;;;;27.01;37.08;101736.56;5215592;28;20057;-71
2022/06/15 11:24:30;;;;;;;7.75;2.88;;;;;;;26.86;36.34;101745.78;5214327;28;20038;-71
2022/06/15 11:27:08;;;;;;;8.45;2.80;;;;;;;27.05;37.25;101744.00;5214434;28;20022;-71
2022/06/15 11:29:43;;;;;;;7.65;3.50;;;;;;;27.05;36.08;101745.84;5214150;28;20061;-71
2022/06/15 11:32:20;;;;;;;7.95;2.75;;;;;;;27.00;35.02;101756.44;5192319;28;20432;-71
2022/06/15 11:35:00;;;;;;;8.45;2.72;;;;;;;27.04;35.25;101744.22;5210834;28;20436;-71
2022/06/15 11:37:44;;;;;;;5.93;3.30;;;;;;;27.13;35.26;101751.84;5207540;28;20045;-71
2022/06/15 11:40:37;;;;;;;6.75;2.70;;;;;;;27.34;34.91;101747.13;5208025;28;20105;-71
2022/06/15 11:43:33;;;;;;;5.38;2.03;;;;;;;27.55;37.00;101745.91;5210435;28;20634;-71
2022/06/15 11:46:16;;;;;;;6.90;2.65;;;;;;;27.61;34.80;101747.72;5207979;28;20100;-71
2022/06/15 11:48:58;;;;;;;;;;;;;;;28.27;34.57;101741.66;5209673;28;20041;-71
2022/06/15 11:51:38;;;;;;;6.47;3.17;;;;;;;27.68;34.50;101748.47;5209147;28;19928;-71
2022/06/15 11:54:21;;;;;;;8.95;3.03;;;;;;;27.17;35.00;101744.16;5214037;28;20032;-71
2022/06/15 11:57:05;;;;;;;5.80;2.72;;;;;;;27.67;35.93;101744.13;5196683;28;20032;-71
2022/06/15 11:59:59;;;;;;;5.68;3.00;;;;;;;27.75;34.88;101738.50;5214538;28;20128;-71
2022/06/15 12:03:04;;;;;;;7.43;2.47;;;;;;;27.93;34.80;101734.19;5208663;28;20108;-70
2022/06/15 12:05:50;;;;;;;7.47;2.90;;;;;;;27.90;34.62;101724.69;5214488;28;20025;-70
2022/06/15 12:08:33;;;;;;;7.63;2.83;;;;;;;27.45;33.76;101727.56;5213951;28;20108;-70
2022/06/15 12:14:34;;;;;;;6.43;3.10;;;;;;;28.01;34.81;101720.41;5209698;28;20077;-70
2022/06/15 12:17:20;;;;;;;5.20;2.67;;;;;;;27.70;34.38;101718.66;5191398;28;20026;-70
2022/06/15 12:20:00;;;;;;;7.82;3.10;;;;;;;27.87;32.79;101717.03;5212368;28;20046;-70
2022/06/15 12:22:54;;;;;;;6.18;2.70;;;;;;;28.40;34.61;101713.72;5215189;28;20112;-70
2022/06/15 12:25:58;;;;;;;7.78;3.05;;;;;;;28.34;33.55;101718.16;5213831;28;20033;-70